Time;durP1;ratioP1;P1;durP2;ratioP2;P2;SDS_P1;SDS_P2;PMS_P1;PMS_P2;Temp;Humidity;BMP_temperature;BMP_pressure;BME280_temperature;BME280_humidity;BME280_pressure;Samples;Min_cycle;Max_cycle;Signal;HPM_P1;HPM_P2
2022/08/10 00:00:20;;;;;;;7.38;6.60;;;15.50;99.90;;;;;;5001894;28;20053;-80
2022/08/10 00:02:56;;;;;;;7.55;6.80;;;15.50;99.90;;;;;;4979996;28;20778;-80
2022/08/10 00:05:23;;;;;;;6.90;6.30;;;15.50;99.90;;;;;;4981517;28;20709;-79
2022/08/10 00:07:50;;;;;;;8.05;6.50;;;15.40;99.90;;;;;;4985541;28;20073;-80
2022/08/10 00:10:19;;;;;;;8.98;6.32;;;15.40;99.90;;;;;;4967227;28;20061;-80
2022/08/10 00:12:45;;;;;;;6.97;5.78;;;15.40;99.90;;;;;;4964989;28;20096;-80
2022/08/10 00:15:17;;;;;;;7.75;6.53;;;15.40;99.90;;;;;;4967109;28;20042;-79
2022/08/10 00:17:43;;;;;;;8.38;7.05;;;15.40;99.90;;;;;;4978194;28;20709;-79
2022/08/10 00:20:10;;;;;;;7.57;6.88;;;15.30;99.90;;;;;;4963187;28;20050;-79
2022/08/10 00:22:36;;;;;;;7.50;6.80;;;15.30;99.90;;;;;;4981792;28;20767;-79
2022/08/10 00:25:03;;;;;;;8.15;7.35;;;15.30;99.90;;;;;;4991870;28;20052;-79
2022/08/10 00:27:31;;;;;;;9.27;7.20;;;15.20;99.90;;;;;;4984548;28;20887;-80
2022/08/10 00:29:58;;;;;;;7.47;6.75;;;15.30;99.90;;;;;;4999361;28;20088;-80
2022/08/10 00:32:24;;;;;;;8.45;7.65;;;15.30;99.90;;;;;;4998131;28;20580;-80
2022/08/10 00:34:50;;;;;;;8.20;6.93;;;15.20;99.90;;;;;;4977729;28;20111;-78
2022/08/10 00:37:17;;;;;;;8.10;7.07;;;15.20;99.90;;;;;;4986157;28;20535;-79
2022/08/10 00:39:44;;;;;;;9.93;7.30;;;15.20;99.90;;;;;;4972937;28;20085;-79
2022/08/10 00:42:12;;;;;;;8.13;7.43;;;15.20;99.90;;;;;;4967923;28;20046;-79
2022/08/10 00:44:49;;;;;;;8.40;7.30;;;15.20;99.90;;;;;;5000418;28;20445;-80
2022/08/10 00:47:16;;;;;;;7.78;6.95;;;15.20;99.90;;;;;;4985121;28;20053;-79
2022/08/10 00:49:42;;;;;;;8.95;7.70;;;15.20;99.90;;;;;;4964441;28;20494;-79
2022/08/10 00:52:11;;;;;;;8.95;8.05;;;15.20;99.90;;;;;;4965680;28;20582;-80
2022/08/10 00:54:40;;;;;;;9.02;8.10;;;15.10;99.90;;;;;;4967416;28;20150;-80
2022/08/10 00:57:06;;;;;;;9.30;8.23;;;15.10;99.90;;;;;;4997389;28;20305;-80
2022/08/10 00:59:33;;;;;;;9.15;8.25;;;15.10;99.90;;;;;;4966442;28;20131;-80
2022/08/10 01:02:00;;;;;;;9.73;8.77;;;15.10;99.90;;;;;;5004417;28;20050;-80
2022/08/10 01:04:26;;;;;;;9.70;8.70;;;15.10;99.90;;;;;;4979647;28;20058;-80
2022/08/10 01:07:10;;;;;;;9.65;8.55;;;15.00;99.90;;;;;;4965424;28;20813;-80
2022/08/10 01:10:01;;;;;;;11.15;8.95;;;15.10;99.90;;;;;;4995838;28;20137;-80
2022/08/10 01:12:40;;;;;;;10.05;9.02;;;15.10;99.90;;;;;;4967904;28;20053;-80
2022/08/10 01:15:38;;;;;;;10.88;8.95;;;15.00;99.90;;;;;;4970754;28;20042;-80
2022/08/10 01:18:08;;;;;;;10.18;9.18;;;15.00;99.90;;;;;;4898874;28;20042;-79
2022/08/10 01:20:50;;;;;;;9.95;9.05;;;15.00;99.90;;;;;;4990158;28;20053;-79
2022/08/10 01:23:27;;;;;;;10.52;9.52;;;15.00;99.90;;;;;;5000858;28;20053;-79
2022/08/10 01:26:26;;;;;;;10.77;9.77;;;15.00;99.90;;;;;;4949778;28;20044;-79
2022/08/10 01:29:30;;;;;;;10.90;9.80;;;15.00;99.90;;;;;;4988200;28;20042;-79
2022/08/10 01:32:02;;;;;;;10.35;9.45;;;15.00;99.90;;;;;;5000329;28;20135;-79
2022/08/10 01:34:41;;;;;;;11.10;10.00;;;14.90;99.90;;;;;;4984756;28;20056;-79
2022/08/10 01:37:13;;;;;;;10.55;9.43;;;14.90;99.90;;;;;;5021453;28;20788;-81
2022/08/10 01:39:40;;;;;;;;;;;14.90;99.90;;;;;;4992357;28;20046;-80
2022/08/10 01:42:12;;;;;;;13.35;9.13;;;14.90;99.90;;;;;;5003225;28;19925;-80
2022/08/10 01:44:52;;;;;;;11.63;10.38;;;14.90;99.90;;;;;;4952138;28;20740;-80
2022/08/10 01:50:47;;;;;;;11.15;9.95;;;14.80;99.90;;;;;;4963565;28;20053;-79
2022/08/10 01:53:27;;;;;;;11.38;10.13;;;14.80;99.90;;;;;;4969897;28;20049;-81
2022/08/10 01:55:56;;;;;;;11.02;9.65;;;14.80;99.90;;;;;;4935133;28;20046;-78
2022/08/10 01:58:25;;;;;;;12.00;10.65;;;14.80;99.90;;;;;;5001765;28;20049;-79
2022/08/10 02:00:52;;;;;;;12.73;10.45;;;14.80;99.90;;;;;;4970636;28;20506;-80
2022/08/10 02:03:19;;;;;;;10.60;9.52;;;14.70;99.90;;;;;;4985513;28;20050;-80
2022/08/10 02:05:52;;;;;;;12.35;11.15;;;14.70;99.90;;;;;;4984061;28;20068;-80
2022/08/10 02:08:21;;;;;;;13.07;11.40;;;14.70;99.90;;;;;;4983183;28;20057;-79
2022/08/10 02:10:49;;;;;;;12.88;10.52;;;14.70;99.90;;;;;;4997858;28;20144;-79
2022/08/10 02:13:16;;;;;;;12.85;11.55;;;14.70;99.90;;;;;;4933107;28;20129;-79
2022/08/10 02:15:45;;;;;;;12.48;11.18;;;14.70;99.90;;;;;;4965190;28;20058;-80
2022/08/10 02:18:12;;;;;;;12.18;10.95;;;14.70;99.90;;;;;;4979036;28;20278;-79
2022/08/10 02:20:50;;;;;;;13.73;12.32;;;14.70;99.90;;;;;;4997919;28;20564;-79
2022/08/10 02:23:24;;;;;;;13.55;12.07;;;14.70;99.90;;;;;;4981227;28;20057;-80
2022/08/10 02:25:53;;;;;;;13.23;11.63;;;14.70;99.90;;;;;;4997412;28;20054;-80
2022/08/10 02:28:23;;;;;;;12.98;11.55;;;14.70;99.90;;;;;;4996399;28;20057;-80
2022/08/10 02:30:51;;;;;;;12.82;11.52;;;14.70;99.90;;;;;;4951564;28;20050;-79
2022/08/10 02:33:20;;;;;;;13.57;12.20;;;14.70;99.90;;;;;;4955391;28;20056;-79
2022/08/10 02:35:50;;;;;;;13.90;11.90;;;14.70;99.90;;;;;;4996379;28;20042;-79
2022/08/10 02:38:21;;;;;;;13.65;11.98;;;14.70;99.90;;;;;;4968588;28;20061;-79
2022/08/10 02:40:54;;;;;;;14.30;11.77;;;14.70;99.90;;;;;;4981647;28;20073;-79
2022/08/10 02:43:30;;;;;;;15.55;12.98;;;14.70;99.90;;;;;;5016376;28;20034;-78
2022/08/10 02:46:09;;;;;;;16.02;13.00;;;14.70;99.90;;;;;;4999134;28;20081;-79
2022/08/10 02:48:43;;;;;;;13.45;12.07;;;14.70;99.90;;;;;;4981118;28;20042;-79
2022/08/10 02:51:25;;;;;;;15.50;12.77;;;14.70;99.90;;;;;;4971943;28;20042;-79
2022/08/10 02:54:00;;;;;;;14.20;12.25;;;14.60;99.90;;;;;;4967734;28;20046;-79
2022/08/10 02:56:50;;;;;;;13.90;12.52;;;14.60;99.90;;;;;;4967580;28;20056;-79
2022/08/10 02:59:28;;;;;;;14.98;11.88;;;14.60;99.90;;;;;;4981390;28;20557;-80
2022/08/10 03:01:58;;;;;;;13.82;12.00;;;14.60;99.90;;;;;;4999445;28;20117;-80
2022/08/10 03:04:31;;;;;;;16.00;12.75;;;14.60;99.90;;;;;;4948823;28;20062;-79
2022/08/10 03:07:02;;;;;;;13.63;12.23;;;14.60;99.90;;;;;;4976827;28;20080;-80
2022/08/10 03:09:30;;;;;;;15.57;13.05;;;14.60;99.90;;;;;;4977856;28;20125;-81
2022/08/10 03:11:59;;;;;;;14.75;12.95;;;14.60;99.90;;;;;;4978732;28;20117;-80
2022/08/10 03:14:26;;;;;;;14.15;12.52;;;14.60;99.90;;;;;;4961972;28;20044;-81
2022/08/10 03:16:53;;;;;;;16.95;14.00;;;14.60;99.90;;;;;;4932709;28;20053;-80
2022/08/10 03:19:20;;;;;;;14.90;13.20;;;14.50;99.90;;;;;;4979250;28;20050;-80
2022/08/10 03:21:51;;;;;;;17.73;12.82;;;14.50;99.90;;;;;;4965299;28;20057;-80
2022/08/10 03:24:21;;;;;;;14.82;13.07;;;14.50;99.90;;;;;;4941837;28;20046;-80
2022/08/10 03:26:52;;;;;;;19.65;13.52;;;14.50;99.90;;;;;;4960178;28;20872;-80
2022/08/10 03:29:20;;;;;;;15.48;13.63;;;14.50;99.90;;;;;;4977428;28;20609;-81
2022/08/10 03:31:48;;;;;;;17.02;13.90;;;14.50;99.90;;;;;;4993137;28;20406;-80
2022/08/10 03:34:15;;;;;;;16.60;13.55;;;14.50;99.90;;;;;;4947225;28;20678;-80
2022/08/10 03:36:45;;;;;;;14.50;12.63;;;14.50;99.90;;;;;;4932582;28;20514;-79
2022/08/10 03:39:12;;;;;;;15.68;13.75;;;14.50;99.90;;;;;;4990402;28;20054;-79
2022/08/10 03:41:51;;;;;;;17.88;13.20;;;14.50;99.90;;;;;;4978403;28;20069;-79
2022/08/10 03:44:24;;;;;;;16.75;14.95;;;14.50;99.90;;;;;;4978885;28;20088;-80
2022/08/10 03:46:52;;;;;;;19.25;14.32;;;14.40;99.90;;;;;;4962717;28;20698;-80
2022/08/10 03:49:20;;;;;;;18.50;14.98;;;14.40;99.90;;;;;;4932046;28;20498;-79
2022/08/10 03:51:48;;;;;;;17.00;14.68;;;14.40;99.90;;;;;;4949408;28;20046;-81
2022/08/10 03:54:16;;;;;;;16.65;14.45;;;14.40;99.90;;;;;;4955613;28;20571;-80
2022/08/10 03:56:42;;;;;;;17.65;14.20;;;14.40;99.90;;;;;;4947158;28;20042;-80
2022/08/10 03:59:13;;;;;;;16.83;15.13;;;14.40;99.90;;;;;;4939669;28;20124;-81
2022/08/10 04:01:41;;;;;;;16.17;14.45;;;14.40;99.90;;;;;;4977406;28;20091;-80
2022/08/10 04:04:08;;;;;;;15.38;13.77;;;14.40;99.90;;;;;;5007728;28;20542;-80
2022/08/10 04:06:34;;;;;;;18.70;15.32;;;14.40;99.90;;;;;;4976774;28;20791;-80
2022/08/10 04:09:01;;;;;;;18.65;15.43;;;14.40;99.90;;;;;;4930224;28;20042;-79
2022/08/10 04:11:27;;;;;;;17.15;15.32;;;14.40;99.90;;;;;;4968755;28;20064;-80
2022/08/10 04:13:53;;;;;;;21.55;15.98;;;14.40;99.90;;;;;;5004501;28;20044;-80
2022/08/10 04:16:19;;;;;;;17.27;14.23;;;14.50;99.90;;;;;;4965177;28;20774;-80
2022/08/10 04:18:45;;;;;;;18.60;15.38;;;14.50;99.90;;;;;;4991088;28;20046;-80
2022/08/10 04:21:17;;;;;;;20.50;15.38;;;14.50;99.90;;;;;;4994957;28;20046;-80
2022/08/10 04:23:48;;;;;;;19.50;15.52;;;14.50;99.90;;;;;;4987140;28;20049;-81
2022/08/10 04:26:15;;;;;;;18.17;14.93;;;14.50;99.90;;;;;;4965578;28;20040;-80
2022/08/10 04:28:41;;;;;;;18.85;14.73;;;14.50;99.90;;;;;;4967154;28;20152;-80
2022/08/10 04:31:11;;;;;;;16.60;14.50;;;14.50;99.90;;;;;;4963497;28;20403;-80
2022/08/10 04:33:42;;;;;;;18.27;14.93;;;14.50;99.90;;;;;;5001853;28;20080;-80
2022/08/10 04:36:10;;;;;;;17.98;14.23;;;14.50;99.90;;;;;;4978327;28;20046;-80
2022/08/10 04:38:37;;;;;;;17.70;15.05;;;14.50;99.90;;;;;;4928818;28;20042;-80
2022/08/10 04:41:04;;;;;;;16.20;14.38;;;14.50;99.90;;;;;;4945471;28;20046;-80
2022/08/10 04:43:30;;;;;;;15.73;14.07;;;14.50;99.90;;;;;;4977067;28;20050;-80
2022/08/10 04:45:56;;;;;;;17.85;15.10;;;14.50;99.90;;;;;;4982684;28;20045;-80
2022/08/10 04:48:23;;;;;;;18.23;14.73;;;14.50;99.90;;;;;;4996822;28;20038;-80
2022/08/10 04:50:50;;;;;;;17.83;15.07;;;14.50;99.90;;;;;;4983683;28;20053;-81
2022/08/10 04:53:16;;;;;;;18.60;16.35;;;14.60;99.90;;;;;;4965879;28;20085;-80
2022/08/10 04:55:42;;;;;;;16.20;13.90;;;14.60;99.90;;;;;;4930175;28;20449;-81
2022/08/10 04:58:08;;;;;;;15.48;13.18;;;14.60;99.90;;;;;;4968986;28;20041;-80
2022/08/10 05:00:34;;;;;;;19.95;15.18;;;14.70;99.90;;;;;;4982790;28;20046;-83
2022/08/10 05:03:00;;;;;;;16.70;13.82;;;14.70;99.90;;;;;;4988512;28;20053;-83
2022/08/10 05:05:27;;;;;;;16.23;13.68;;;14.70;99.90;;;;;;4939424;28;20053;-82
2022/08/10 05:07:53;;;;;;;18.00;14.50;;;14.80;99.90;;;;;;4951318;28;20045;-78
2022/08/10 05:10:20;;;;;;;14.15;12.68;;;14.80;99.90;;;;;;4997972;28;20069;-78
2022/08/10 05:12:46;;;;;;;26.23;23.13;;;15.00;99.90;;;;;;4996859;28;20058;-74
2022/08/10 05:15:16;;;;;;;25.42;22.90;;;15.20;99.90;;;;;;4979190;28;20061;-76
2022/08/10 05:17:43;;;;;;;14.38;11.80;;;15.50;99.90;;;;;;4992672;28;20124;-76
2022/08/10 05:20:10;;;;;;;30.40;26.55;;;15.80;99.90;;;;;;5014154;28;20046;-81
2022/08/10 05:22:42;;;;;;;16.35;14.35;;;15.90;99.90;;;;;;5010757;28;20041;-81
2022/08/10 05:25:15;;;;;;;15.65;11.73;;;16.10;99.90;;;;;;4986528;28;20052;-81
2022/08/10 05:27:42;;;;;;;14.25;12.75;;;16.40;99.90;;;;;;4985189;28;20042;-81
2022/08/10 05:30:14;;;;;;;15.27;13.05;;;16.60;99.90;;;;;;4995811;28;20046;-80
2022/08/10 05:32:41;;;;;;;13.40;10.80;;;16.80;99.90;;;;;;4958639;28;20046;-80
2022/08/10 05:35:07;;;;;;;12.77;11.13;;;16.90;99.90;;;;;;4993647;28;20384;-78
2022/08/10 05:37:34;;;;;;;10.10;9.07;;;17.00;99.90;;;;;;4981360;28;20042;-77
2022/08/10 05:40:03;;;;;;;13.63;10.80;;;17.00;99.90;;;;;;5002041;28;20084;-81
2022/08/10 05:42:29;;;;;;;10.45;8.80;;;17.10;99.90;;;;;;4965154;28;20094;-79
2022/08/10 05:44:56;;;;;;;13.40;9.20;;;17.10;99.90;;;;;;4951700;28;20148;-77
2022/08/10 05:47:23;;;;;;;10.95;8.93;;;17.20;99.90;;;;;;4984592;28;20521;-77
2022/08/10 05:49:50;;;;;;;11.52;9.00;;;17.20;99.90;;;;;;5000139;28;20046;-78
2022/08/10 05:52:17;;;;;;;9.40;8.45;;;17.30;99.90;;;;;;4936267;28;20543;-78
2022/08/10 05:54:46;;;;;;;8.75;7.90;;;17.50;99.90;;;;;;4967126;28;20120;-78
2022/08/10 05:57:18;;;;;;;9.43;8.13;;;17.50;99.90;;;;;;4976878;28;20049;-78
2022/08/10 05:59:48;;;;;;;8.65;7.85;;;17.60;99.90;;;;;;4955554;28;20129;-78
2022/08/10 06:02:31;;;;;;;11.27;8.38;;;17.80;99.90;;;;;;4930718;28;20049;-79
2022/08/10 06:05:02;;;;;;;11.65;8.23;;;17.90;99.90;;;;;;4964488;28;20069;-76
2022/08/10 06:07:30;;;;;;;8.40;7.53;;;18.00;99.90;;;;;;4999056;28;20602;-79
2022/08/10 06:09:59;;;;;;;9.23;8.23;;;18.20;99.90;;;;;;4941304;28;1127816;-80
2022/08/10 06:12:27;;;;;;;8.20;7.40;;;18.20;99.90;;;;;;4995492;28;20057;-80
2022/08/10 06:15:02;;;;;;;8.88;7.97;;;18.30;99.90;;;;;;4965594;28;20062;-80
2022/08/10 06:17:30;;;;;;;8.65;7.75;;;18.40;99.90;;;;;;4990650;28;20077;-80
2022/08/10 06:19:57;;;;;;;7.97;7.20;;;18.60;99.90;;;;;;4982560;28;20732;-81
2022/08/10 06:22:30;;;;;;;9.45;7.72;;;18.70;99.90;;;;;;4965196;28;20046;-80
2022/08/10 06:25:00;;;;;;;8.77;7.50;;;18.80;99.90;;;;;;4964264;28;20061;-81
2022/08/10 06:27:26;;;;;;;8.27;6.50;;;19.00;99.90;;;;;;4983748;28;20646;-76
2022/08/10 06:29:53;;;;;;;8.73;5.80;;;19.10;99.90;;;;;;4970171;28;20046;-80
2022/08/10 06:32:24;;;;;;;7.00;5.28;;;19.30;99.90;;;;;;4965024;28;20056;-79
2022/08/10 06:34:54;;;;;;;12.55;9.27;;;19.50;99.90;;;;;;4984731;28;20049;-80
2022/08/10 06:37:24;;;;;;;6.22;5.20;;;19.50;99.90;;;;;;4992663;28;20050;-79
2022/08/10 06:39:51;;;;;;;7.78;6.22;;;19.60;99.90;;;;;;4968387;28;20766;-79
2022/08/10 06:42:39;;;;;;;8.18;5.63;;;19.80;99.90;;;;;;4980329;28;20042;-79
2022/08/10 06:45:19;;;;;;;7.00;5.15;;;19.90;99.90;;;;;;4964573;28;20052;-79
2022/08/10 06:47:58;;;;;;;6.07;5.47;;;20.10;99.90;;;;;;4992321;28;20042;-79
2022/08/10 06:50:54;;;;;;;6.70;5.43;;;20.30;99.90;;;;;;4983877;28;20668;-80
2022/08/10 06:53:24;;;;;;;7.45;5.95;;;20.40;99.90;;;;;;4996299;28;20049;-80
2022/08/10 06:56:10;;;;;;;8.13;5.85;;;20.50;99.90;;;;;;4984895;28;20114;-80
2022/08/10 06:58:44;;;;;;;6.65;5.28;;;20.80;99.90;;;;;;4981962;28;20041;-80
2022/08/10 07:01:14;;;;;;;6.03;5.07;;;21.00;99.90;;;;;;4991863;28;20081;-79
2022/08/10 07:04:03;;;;;;;7.07;5.05;;;21.30;99.90;;;;;;4989672;28;20050;-76
2022/08/10 07:06:31;;;;;;;8.13;4.65;;;21.30;99.90;;;;;;4949210;28;20700;-78
2022/08/10 07:08:59;;;;;;;7.43;4.50;;;21.60;99.90;;;;;;4975870;28;20046;-77
2022/08/10 07:11:27;;;;;;;6.32;4.00;;;21.90;99.90;;;;;;4964758;28;20160;-76
2022/08/10 07:13:57;;;;;;;6.55;3.97;;;22.10;99.90;;;;;;4990779;28;20052;-77
2022/08/10 07:16:27;;;;;;;6.22;4.13;;;22.30;99.90;;;;;;4980115;28;20049;-77
2022/08/10 07:18:59;;;;;;;5.03;3.15;;;22.60;99.90;;;;;;4985299;28;20197;-77
2022/08/10 07:21:25;;;;;;;7.18;3.35;;;22.60;99.90;;;;;;4965535;28;20395;-78
2022/08/10 07:23:53;;;;;;;4.97;3.80;;;23.00;99.90;;;;;;5006119;28;20057;-76
2022/08/10 07:26:21;;;;;;;3.78;2.55;;;23.30;99.90;;;;;;4964355;28;20056;-79
2022/08/10 07:28:49;;;;;;;7.45;3.67;;;23.60;99.90;;;;;;4969422;28;20461;-77
2022/08/10 07:31:19;;;;;;;4.93;2.88;;;23.70;99.90;;;;;;4999253;28;20064;-78
2022/08/10 07:33:47;;;;;;;8.07;6.90;;;24.00;99.90;;;;;;4981566;28;20042;-78
2022/08/10 07:36:17;;;;;;;9.73;6.20;;;24.30;99.90;;;;;;4969034;28;21773;-77
2022/08/10 07:38:45;;;;;;;14.50;12.83;;;24.60;99.90;;;;;;4966222;28;20062;-78
2022/08/10 07:41:13;;;;;;;6.95;3.58;;;24.70;99.90;;;;;;4961943;28;20041;-78
2022/08/10 07:43:42;;;;;;;6.53;3.00;;;24.70;99.90;;;;;;5012267;28;20050;-78
2022/08/10 07:46:11;;;;;;;6.22;5.07;;;24.80;99.90;;;;;;4966352;28;20124;-78
2022/08/10 07:48:47;;;;;;;4.20;2.60;;;24.90;99.90;;;;;;4993434;28;20053;-78
2022/08/10 07:51:18;;;;;;;4.88;2.72;;;25.10;99.90;;;;;;4981638;28;20049;-79
2022/08/10 07:53:54;;;;;;;5.22;2.70;;;25.10;99.90;;;;;;4998304;28;20046;-78
2022/08/10 07:56:27;;;;;;;4.45;3.97;;;25.00;99.90;;;;;;4967761;28;20044;-78
2022/08/10 07:59:09;;;;;;;10.05;7.30;;;25.10;99.90;;;;;;5009034;28;20050;-79
2022/08/10 08:01:46;;;;;;;5.88;4.78;;;25.20;99.90;;;;;;4979979;28;20046;-80
2022/08/10 08:04:15;;;;;;;10.13;7.60;;;25.40;99.90;;;;;;4966915;28;20045;-79
2022/08/10 08:06:47;;;;;;;6.47;3.75;;;25.90;99.90;;;;;;4999795;28;20060;-78
2022/08/10 08:09:13;;;;;;;9.43;5.32;;;26.10;99.90;;;;;;4983238;28;20056;-79
2022/08/10 08:11:43;;;;;;;5.07;2.45;;;26.00;99.90;;;;;;5001832;28;20559;-79
2022/08/10 08:14:10;;;;;;;6.65;3.78;;;26.20;99.90;;;;;;4966086;28;20057;-80
2022/08/10 08:16:41;;;;;;;9.57;3.92;;;26.20;99.90;;;;;;4986898;28;20137;-79
2022/08/10 08:19:12;;;;;;;5.63;3.00;;;26.20;99.90;;;;;;4983104;28;20483;-80
2022/08/10 08:21:40;;;;;;;6.38;4.95;;;26.80;99.90;;;;;;4983819;28;20061;-83
2022/08/10 08:24:08;;;;;;;9.50;5.10;;;26.60;99.90;;;;;;4966671;28;20096;-79
2022/08/10 08:26:36;;;;;;;8.20;5.82;;;26.80;99.90;;;;;;4984844;28;20080;-80
2022/08/10 08:29:05;;;;;;;3.90;1.92;;;27.10;99.90;;;;;;4967153;28;20060;-80
2022/08/10 08:31:32;;;;;;;5.25;4.63;;;27.10;99.90;;;;;;4966608;28;20823;-79
2022/08/10 08:33:59;;;;;;;5.40;2.13;;;27.50;99.90;;;;;;4968823;28;20077;-78
2022/08/10 08:36:26;;;;;;;5.70;2.80;;;27.30;99.90;;;;;;5000483;28;20176;-78
2022/08/10 08:38:53;;;;;;;8.52;5.15;;;27.70;98.20;;;;;;4966146;28;20061;-78
2022/08/10 08:41:35;;;;;;;4.28;1.95;;;27.90;97.90;;;;;;4967808;28;20046;-78
2022/08/10 08:44:19;;;;;;;4.70;2.78;;;28.10;94.40;;;;;;4951372;28;20053;-78
2022/08/10 08:47:24;;;;;;;4.93;3.22;;;28.40;95.40;;;;;;5005219;28;20124;-79
2022/08/10 08:50:12;;;;;;;4.85;3.10;;;28.80;90.00;;;;;;4979826;28;20042;-79
2022/08/10 08:52:47;;;;;;;3.78;1.92;;;29.00;83.10;;;;;;4976511;28;20395;-79
2022/08/10 08:55:25;;;;;;;5.25;2.67;;;28.90;89.60;;;;;;5012432;28;20154;-79
2022/08/10 08:58:20;;;;;;;5.30;2.63;;;29.10;84.00;;;;;;4966908;28;20677;-79
2022/08/10 09:01:34;;;;;;;4.38;2.05;;;29.00;76.70;;;;;;4982528;28;20045;-79
2022/08/10 09:04:12;;;;;;;5.85;2.25;;;29.20;75.40;;;;;;4995992;28;20533;-79
2022/08/10 09:07:20;;;;;;;5.07;2.28;;;29.50;74.10;;;;;;4996023;28;20103;-79
2022/08/10 09:10:10;;;;;;;3.17;1.88;;;30.00;72.30;;;;;;4901877;28;20051;-78
2022/08/10 09:12:39;;;;;;;9.73;1.92;;;30.10;70.10;;;;;;4929704;28;20047;-79
2022/08/10 09:15:16;;;;;;;11.52;3.80;;;29.80;69.10;;;;;;4985244;28;20057;-78
2022/08/10 09:18:04;;;;;;;3.22;1.40;;;29.80;67.10;;;;;;4991591;28;20045;-78
2022/08/10 09:20:38;;;;;;;6.93;4.18;;;30.00;64.60;;;;;;4946336;28;20132;-76
2022/08/10 09:23:39;;;;;;;4.05;2.47;;;30.00;66.10;;;;;;4966760;28;20557;-76
2022/08/10 09:26:20;;;;;;;5.53;1.95;;;30.30;64.20;;;;;;5009491;28;20047;-77
2022/08/10 09:28:48;;;;;;;4.13;1.63;;;30.70;63.10;;;;;;4962179;28;20049;-74
2022/08/10 09:31:19;;;;;;;7.45;5.88;;;30.10;63.40;;;;;;4985201;28;20569;-75
2022/08/10 09:34:15;;;;;;;5.18;1.70;;;30.90;62.30;;;;;;4966831;28;20050;-77
2022/08/10 09:37:02;;;;;;;3.08;1.42;;;31.20;61.80;;;;;;4995129;28;20044;-74
2022/08/10 09:39:41;;;;;;;3.40;1.55;;;31.50;59.40;;;;;;5001423;28;20788;-77
2022/08/10 09:42:38;;;;;;;5.50;2.08;;;31.20;57.70;;;;;;4982287;28;20050;-77
2022/08/10 09:45:29;;;;;;;10.98;6.63;;;31.30;57.60;;;;;;5013533;28;20216;-79
2022/08/10 09:48:08;;;;;;;;;;;31.40;59.50;;;;;;4984246;28;20174;-79
2022/08/10 09:50:57;;;;;;;5.38;2.25;;;31.40;57.20;;;;;;5021074;28;19928;-78
2022/08/10 09:53:59;;;;;;;6.03;2.85;;;31.40;57.00;;;;;;4983939;28;20077;-79
2022/08/10 09:56:45;;;;;;;4.07;2.35;;;31.20;55.90;;;;;;4976861;28;20045;-74
2022/08/10 09:59:44;;;;;;;3.17;1.20;;;31.60;56.30;;;;;;4999561;28;20042;-78
2022/08/10 10:02:19;;;;;;;4.13;1.48;;;32.00;54.00;;;;;;5000386;28;20620;-79
2022/08/10 10:05:15;;;;;;;3.78;1.33;;;31.80;53.70;;;;;;4968542;28;20070;-80
2022/08/10 10:07:49;;;;;;;4.13;1.70;;;32.00;53.00;;;;;;4996473;28;20050;-80
2022/08/10 10:10:18;;;;;;;6.97;3.30;;;32.10;52.70;;;;;;4996052;28;20061;-79
2022/08/10 10:13:09;;;;;;;3.78;1.30;;;32.20;52.60;;;;;;4984176;28;20050;-79
2022/08/10 10:15:50;;;;;;;3.92;1.92;;;32.10;51.60;;;;;;4984025;28;21231;-79
2022/08/10 10:18:30;;;;;;;7.97;2.50;;;32.20;52.10;;;;;;4966111;28;20068;-79
2022/08/10 10:21:15;;;;;;;;;;;32.40;51.70;;;;;;4975665;28;20103;-79
2022/08/10 10:23:56;;;;;;;2.38;1.38;;;32.50;51.20;;;;;;5002521;28;19988;-77
2022/08/10 10:26:40;;;;;;;3.17;1.67;;;33.10;49.90;;;;;;4982773;28;20510;-77
2022/08/10 10:29:34;;;;;;;5.55;3.13;;;33.00;49.50;;;;;;4986895;28;20049;-77
2022/08/10 10:32:17;;;;;;;5.35;2.40;;;33.10;49.10;;;;;;4985791;28;20054;-77
2022/08/10 10:35:03;;;;;;;4.80;1.35;;;33.10;48.50;;;;;;4984490;28;20045;-78
2022/08/10 10:37:31;;;;;;;3.65;1.55;;;33.20;48.40;;;;;;4983807;28;20049;-78
2022/08/10 10:40:01;;;;;;;4.45;2.03;;;33.10;49.00;;;;;;4988427;28;20822;-77
2022/08/10 10:42:48;;;;;;;3.42;1.45;;;33.50;48.90;;;;;;4970585;28;20049;-77
2022/08/10 10:45:32;;;;;;;6.15;4.20;;;33.70;47.60;;;;;;4969018;28;20072;-77
2022/08/10 10:48:17;;;;;;;3.53;1.23;;;33.70;46.70;;;;;;4982871;28;20042;-76
2022/08/10 10:51:12;;;;;;;2.78;2.15;;;33.70;45.70;;;;;;4975438;28;20049;-77
2022/08/10 10:54:08;;;;;;;7.57;3.92;;;33.70;46.70;;;;;;4938484;28;20061;-77
2022/08/10 10:57:00;;;;;;;4.55;1.90;;;34.10;45.80;;;;;;4965023;28;20077;-76
2022/08/10 10:59:46;;;;;;;4.28;2.05;;;33.90;45.20;;;;;;4970031;28;20500;-77
2022/08/10 11:02:42;;;;;;;7.68;4.72;;;33.70;45.30;;;;;;4982235;28;20053;-76
2022/08/10 11:05:22;;;;;;;7.63;1.10;;;34.00;45.30;;;;;;5000253;28;20092;-76
2022/08/10 11:07:59;;;;;;;4.15;3.10;;;34.00;44.60;;;;;;4999602;28;20080;-77
2022/08/10 11:10:33;;;;;;;3.20;2.08;;;33.90;44.30;;;;;;4931339;28;20060;-77
2022/08/10 11:13:27;;;;;;;3.22;0.85;;;34.10;45.00;;;;;;4990710;28;20058;-77
2022/08/10 11:16:03;;;;;;;2.42;0.80;;;34.40;44.90;;;;;;4985766;28;20172;-76
2022/08/10 11:18:47;;;;;;;3.22;1.33;;;34.20;44.40;;;;;;4966288;28;20045;-77
2022/08/10 11:21:19;;;;;;;1.92;0.90;;;34.10;43.70;;;;;;5000535;28;20037;-77
2022/08/10 11:24:16;;;;;;;2.55;1.40;;;34.20;43.20;;;;;;4950865;28;20044;-77
2022/08/10 11:26:47;;;;;;;7.15;6.45;;;34.30;43.40;;;;;;5004754;28;20046;-74
2022/08/10 11:29:37;;;;;;;4.43;1.45;;;34.30;44.30;;;;;;4980111;28;20457;-78
2022/08/10 11:32:33;;;;;;;4.07;1.00;;;34.50;42.70;;;;;;5014805;28;20056;-78
2022/08/10 11:35:02;;;;;;;3.15;1.58;;;34.30;42.00;;;;;;4970364;28;20045;-78
2022/08/10 11:37:43;;;;;;;3.55;0.90;;;34.10;42.30;;;;;;4995554;28;20055;-77
2022/08/10 11:40:19;;;;;;;2.50;0.95;;;34.10;42.40;;;;;;4983998;28;21137;-77
2022/08/10 11:43:03;;;;;;;1.38;0.90;;;34.00;41.70;;;;;;4973576;28;20041;-75
2022/08/10 11:45:34;;;;;;;2.65;1.05;;;33.90;42.90;;;;;;4964845;28;20049;-79
2022/08/10 11:48:39;;;;;;;2.75;0.90;;;33.80;43.40;;;;;;4979421;28;20061;-78
2022/08/10 11:51:15;;;;;;;11.27;10.18;;;33.80;42.10;;;;;;4969489;28;20046;-79
2022/08/10 11:53:52;;;;;;;16.77;14.90;;;34.20;43.10;;;;;;4988147;28;20459;-79
2022/08/10 11:56:28;;;;;;;8.63;7.82;;;34.20;42.80;;;;;;4982183;28;20049;-77
2022/08/10 12:01:44;;;;;;;1.75;0.93;;;34.00;42.20;;;;;;4966849;28;20247;-80
2022/08/10 12:04:13;;;;;;;2.95;1.27;;;34.10;41.40;;;;;;4966851;28;20046;-79
2022/08/10 12:06:41;;;;;;;3.53;1.00;;;33.70;41.90;;;;;;5000761;28;20046;-75
2022/08/10 12:09:10;;;;;;;6.10;4.43;;;33.90;41.50;;;;;;4965955;28;20076;-76
2022/08/10 12:11:37;;;;;;;6.43;4.65;;;33.80;41.70;;;;;;4957809;28;20069;-75
2022/08/10 12:14:16;;;;;;;2.35;1.13;;;33.80;42.10;;;;;;4963598;28;20050;-76
2022/08/10 12:16:50;;;;;;;31.20;27.83;;;33.90;43.90;;;;;;4974678;28;20137;-80
2022/08/10 12:19:42;;;;;;;11.93;9.73;;;33.80;42.40;;;;;;4942111;28;20096;-80
2022/08/10 12:22:12;;;;;;;10.10;4.50;;;33.70;42.80;;;;;;5002281;28;20049;-80
2022/08/10 12:24:48;;;;;;;4.50;2.40;;;33.80;42.40;;;;;;4966631;28;20468;-81
2022/08/10 12:27:37;;;;;;;4.47;1.80;;;33.90;41.90;;;;;;4983917;28;20076;-77
2022/08/10 12:30:05;;;;;;;2.47;1.80;;;33.80;41.90;;;;;;4960800;28;20046;-76
2022/08/10 12:32:46;;;;;;;4.18;1.55;;;33.90;42.00;;;;;;4969660;28;20050;-77
2022/08/10 12:35:28;;;;;;;2.63;1.27;;;34.00;40.80;;;;;;4963691;28;20136;-76
2022/08/10 12:38:20;;;;;;;4.18;2.35;;;34.50;40.40;;;;;;4944705;28;20326;-76
2022/08/10 12:41:03;;;;;;;4.97;1.70;;;34.50;41.30;;;;;;5002680;28;20046;-77
2022/08/10 12:43:38;;;;;;;4.55;1.55;;;34.30;41.40;;;;;;4993059;28;20046;-78
2022/08/10 12:46:36;;;;;;;2.13;0.90;;;34.40;41.60;;;;;;4984255;28;20188;-78
2022/08/10 12:49:32;;;;;;;4.15;1.92;;;34.50;40.70;;;;;;4979757;28;20058;-76
2022/08/10 12:52:28;;;;;;;7.07;1.70;;;34.40;40.40;;;;;;4959812;28;20173;-80
2022/08/10 12:54:58;;;;;;;2.92;1.30;;;34.20;41.00;;;;;;4981533;28;20047;-80
2022/08/10 12:57:26;;;;;;;2.05;1.17;;;34.30;41.80;;;;;;4947076;28;20439;-80
2022/08/10 13:00:05;;;;;;;4.28;0.95;;;34.40;40.60;;;;;;4932039;28;20100;-80
2022/08/10 13:02:36;;;;;;;1.58;0.90;;;34.90;39.50;;;;;;4944079;28;20089;-80
2022/08/10 13:05:09;;;;;;;;;;;34.80;39.20;;;;;;4995963;28;20054;-79
2022/08/10 13:07:39;;;;;;;2.65;0.88;;;34.50;40.00;;;;;;4973527;28;19926;-80
2022/08/10 13:10:11;;;;;;;3.67;1.70;;;34.80;39.50;;;;;;4964203;28;20085;-79
2022/08/10 13:12:41;;;;;;;3.22;0.90;;;34.80;39.30;;;;;;4964181;28;20042;-79
2022/08/10 13:15:25;;;;;;;3.60;1.23;;;35.10;39.40;;;;;;4997184;28;20833;-80
2022/08/10 13:17:53;;;;;;;7.05;2.17;;;35.30;37.50;;;;;;4965852;28;20117;-79
2022/08/10 13:20:33;;;;;;;6.03;5.32;;;35.20;38.30;;;;;;4968805;28;20108;-75
2022/08/10 13:23:04;;;;;;;3.08;2.10;;;35.30;37.50;;;;;;4972769;28;20066;-75